Time;durP1;ratioP1;P1;durP2;ratioP2;P2;SDS_P1;SDS_P2;PMS_P1;PMS_P2;Temp;Humidity;BMP_temperature;BMP_pressure;BME280_temperature;BME280_humidity;BME280_pressure;Samples;Min_cycle;Max_cycle;Signal;HPM_P1;HPM_P2
2021/05/05 00:00:28;;;;;;;0.50;0.50;;;;;;;6.23;81.58;95820.78;29373;212;63004;-57
2021/05/05 00:00:59;;;;;;;0.60;0.60;;;;;;;6.20;81.41;95815.19;29395;302;63004;-56
2021/05/05 00:01:31;;;;;;;0.60;0.60;;;;;;;6.20;81.43;95825.94;29373;302;63009;-57
2021/05/05 00:02:03;;;;;;;0.60;0.60;;;;;;;6.27;80.78;95823.66;29371;263;64004;-56
2021/05/05 00:02:35;;;;;;;0.60;0.60;;;;;;;6.27;80.32;95815.59;29373;315;63011;-56
2021/05/05 00:03:06;;;;;;;0.50;0.50;;;;;;;6.31;79.51;95822.78;29373;219;63011;-57
2021/05/05 00:03:38;;;;;;;0.60;0.60;;;;;;;6.35;79.06;95812.25;29373;202;63009;-57
2021/05/05 00:04:09;;;;;;;0.60;0.60;;;;;;;6.37;79.31;95812.75;29373;335;63005;-57
2021/05/05 00:04:40;;;;;;;0.60;0.60;;;;;;;6.35;79.17;95813.03;29373;303;63009;-56
2021/05/05 00:05:16;;;;;;;0.50;0.50;;;;;;;6.33;79.57;95809.03;29373;215;63005;-56
2021/05/05 00:05:48;;;;;;;0.60;0.60;;;;;;;6.26;80.50;95813.97;29371;360;64009;-56
2021/05/05 00:06:19;;;;;;;0.60;0.60;;;;;;;6.18;81.10;95803.88;29373;253;63009;-57
2021/05/05 00:06:54;;;;;;;0.60;0.60;;;;;;;6.11;81.05;95808.81;29395;311;63009;-56
2021/05/05 00:07:25;;;;;;;0.60;0.60;;;;;;;6.19;80.63;95802.78;29371;199;64004;-56
2021/05/05 00:07:56;;;;;;;0.60;0.60;;;;;;;6.22;80.30;95799.53;29373;286;63009;-56
2021/05/05 00:08:27;;;;;;;0.60;0.60;;;;;;;6.24;80.34;95795.41;29373;197;63004;-56
2021/05/05 00:08:58;;;;;;;0.60;0.60;;;;;;;6.22;80.21;95800.31;29373;258;63009;-58
2021/05/05 00:09:29;;;;;;;0.60;0.60;;;;;;;6.26;79.78;95795.13;29373;228;63004;-57
2021/05/05 00:10:01;;;;;;;0.60;0.60;;;;;;;6.25;79.95;95785.44;29373;269;63008;-56
2021/05/05 00:10:32;;;;;;;0.60;0.60;;;;;;;6.21;79.91;95789.84;29395;208;63004;-57
2021/05/05 00:11:03;;;;;;;0.60;0.60;;;;;;;6.16;80.43;95788.00;29373;294;63009;-56
2021/05/05 00:11:34;;;;;;;0.60;0.60;;;;;;;6.15;80.68;95791.81;29395;244;63005;-57
2021/05/05 00:12:07;;;;;;;0.60;0.60;;;;;;;6.13;81.30;95793.97;29373;329;63009;-56
2021/05/05 00:12:39;;;;;;;0.60;0.60;;;;;;;6.11;81.55;95784.59;29371;239;64017;-55
2021/05/05 00:13:10;;;;;;;0.60;0.60;;;;;;;6.07;82.08;95784.38;29373;333;63009;-56
2021/05/05 00:13:41;;;;;;;0.60;0.60;;;;;;;6.07;81.93;95794.34;29373;217;63005;-61
2021/05/05 00:14:15;;;;;;;0.60;0.60;;;;;;;6.08;80.64;95785.97;29373;254;63009;-56
2021/05/05 00:14:46;;;;;;;0.57;0.57;;;;;;;6.01;80.45;95783.63;29373;259;63004;-57
2021/05/05 00:15:21;;;;;;;0.50;0.50;;;;;;;6.05;80.70;95776.56;29373;285;63009;-55
2021/05/05 00:15:52;;;;;;;0.60;0.60;;;;;;;6.07;80.65;95778.97;29371;259;64004;-57
2021/05/05 00:16:23;;;;;;;0.60;0.60;;;;;;;6.15;79.96;95774.84;29395;228;63009;-59
2021/05/05 00:16:55;;;;;;;0.60;0.60;;;;;;;6.17;79.24;95778.03;29373;250;63004;-56
2021/05/05 00:17:26;;;;;;;0.60;0.60;;;;;;;6.16;79.17;95779.13;29373;321;63008;-56
2021/05/05 00:17:57;;;;;;;0.60;0.60;;;;;;;6.12;79.97;95784.31;29373;294;63004;-56
2021/05/05 00:18:28;;;;;;;0.60;0.60;;;;;;;6.07;80.58;95778.19;29373;199;63009;-56
2021/05/05 00:18:59;;;;;;;0.60;0.60;;;;;;;6.03;81.01;95778.75;29371;199;64005;-55
2021/05/05 00:19:31;;;;;;;0.60;0.60;;;;;;;6.02;81.25;95771.78;29373;348;63009;-57
2021/05/05 00:20:05;;;;;;;0.60;0.60;;;;;;;6.02;80.92;95776.34;29373;252;63005;-56
2021/05/05 00:20:37;;;;;;;0.50;0.50;;;;;;;6.05;81.37;95776.56;29373;269;63009;-56
2021/05/05 00:21:08;;;;;;;0.60;0.60;;;;;;;6.04;81.46;95777.66;29373;277;63005;-57
2021/05/05 00:21:40;;;;;;;0.60;0.60;;;;;;;6.05;81.30;95789.25;29373;306;63009;-57
2021/05/05 00:22:12;;;;;;;0.60;0.60;;;;;;;6.01;81.07;95780.94;29373;264;63004;-56
2021/05/05 00:22:43;;;;;;;0.60;0.60;;;;;;;6.04;81.01;95785.75;29373;278;63009;-56
2021/05/05 00:23:15;;;;;;;0.60;0.60;;;;;;;6.04;81.12;95783.06;29373;347;63004;-56
2021/05/05 00:23:46;;;;;;;0.62;0.62;;;;;;;6.03;81.10;95797.59;29373;277;63009;-56
2021/05/05 00:24:18;;;;;;;0.60;0.60;;;;;;;6.00;81.44;95798.19;29371;309;64004;-56
2021/05/05 00:24:50;;;;;;;0.70;0.70;;;;;;;5.96;81.70;95802.53;29373;196;63008;-56
2021/05/05 00:25:21;;;;;;;0.70;0.70;;;;;;;5.92;81.95;95804.22;29373;306;63005;-56
2021/05/05 00:25:52;;;;;;;0.70;0.70;;;;;;;5.92;81.90;95803.41;29373;209;63009;-55
2021/05/05 00:26:24;;;;;;;0.60;0.60;;;;;;;5.93;82.25;95805.81;29373;348;63005;-56
2021/05/05 00:26:55;;;;;;;0.70;0.70;;;;;;;5.89;82.46;95807.47;29373;202;63005;-56
2021/05/05 00:27:27;;;;;;;0.60;0.60;;;;;;;5.85;82.34;95809.16;29373;237;63005;-57
2021/05/05 00:27:59;;;;;;;0.70;0.70;;;;;;;5.87;82.67;95809.66;29373;219;63009;-57
2021/05/05 00:28:30;;;;;;;0.70;0.70;;;;;;;5.92;82.48;95809.59;29373;230;63005;-55
2021/05/05 00:29:02;;;;;;;0.60;0.60;;;;;;;5.95;82.53;95803.63;29371;263;64009;-57
2021/05/05 00:29:33;;;;;;;0.60;0.60;;;;;;;5.99;82.00;95807.34;29373;345;63004;-56
2021/05/05 00:30:07;;;;;;;0.60;0.60;;;;;;;5.99;81.82;95804.66;29373;337;63009;-56
2021/05/05 00:30:39;;;;;;;0.60;0.60;;;;;;;5.96;82.29;95810.63;29373;334;63000;-57
2021/05/05 00:31:10;;;;;;;0.60;0.60;;;;;;;5.90;82.23;95805.59;29373;210;63009;-56
2021/05/05 00:31:41;;;;;;;0.70;0.70;;;;;;;5.90;82.62;95801.00;29373;304;63004;-56
2021/05/05 00:32:12;;;;;;;0.60;0.60;;;;;;;5.93;83.29;95805.00;29373;256;63008;-57
2021/05/05 00:32:43;;;;;;;0.60;0.60;;;;;;;5.93;82.02;95811.19;29373;232;63005;-56
2021/05/05 00:33:15;;;;;;;0.60;0.60;;;;;;;5.90;82.30;95810.97;29371;225;64009;-57
2021/05/05 00:33:46;;;;;;;0.70;0.70;;;;;;;5.89;82.44;95815.56;29373;303;63005;-57
2021/05/05 00:34:17;;;;;;;0.70;0.70;;;;;;;5.90;82.82;95816.34;29373;202;63009;-57
2021/05/05 00:34:48;;;;;;;0.60;0.60;;;;;;;5.93;82.26;95805.81;29371;198;64005;-56
2021/05/05 00:35:20;;;;;;;0.60;0.60;;;;;;;5.93;81.94;95819.28;29373;218;63009;-56
2021/05/05 00:35:51;;;;;;;0.52;0.52;;;;;;;5.91;82.01;95812.56;29373;254;63005;-57
2021/05/05 00:36:22;;;;;;;0.50;0.50;;;;;;;5.91;82.50;95802.59;29373;196;63009;-57
2021/05/05 00:36:54;;;;;;;0.60;0.60;;;;;;;5.91;82.33;95807.19;29373;374;63004;-56
2021/05/05 00:37:26;;;;;;;0.60;0.60;;;;;;;5.95;82.36;95808.22;29373;199;63009;-56
2021/05/05 00:37:57;;;;;;;0.50;0.50;;;;;;;5.96;82.48;95807.13;29371;352;64004;-56
2021/05/05 00:38:28;;;;;;;0.60;0.60;;;;;;;5.93;82.50;95800.44;29373;228;63009;-56
2021/05/05 00:38:59;;;;;;;0.60;0.60;;;;;;;5.96;82.58;95807.94;29373;197;63004;-56
2021/05/05 00:39:30;;;;;;;0.60;0.60;;;;;;;5.99;82.70;95803.84;29373;223;63008;-54
2021/05/05 00:40:04;;;;;;;0.60;0.60;;;;;;;6.03;82.21;95794.91;29373;228;63004;-55
2021/05/05 00:40:35;;;;;;;0.50;0.50;;;;;;;5.98;82.08;95800.38;29373;199;63009;-55
2021/05/05 00:41:11;;;;;;;0.60;0.60;;;;;;;5.97;82.15;95806.84;29373;269;63005;-57
2021/05/05 00:41:45;;;;;;;0.60;0.60;;;;;;;5.96;82.52;95804.44;29373;222;63009;-55
2021/05/05 00:42:16;;;;;;;0.60;0.60;;;;;;;5.92;82.56;95798.81;29371;401;64005;-56
2021/05/05 00:42:48;;;;;;;0.60;0.60;;;;;;;6.01;82.59;95797.09;29373;220;63009;-54
2021/05/05 00:43:19;;;;;;;0.50;0.50;;;;;;;6.01;81.77;95794.41;29373;297;63005;-55
2021/05/05 00:43:50;;;;;;;0.60;0.60;;;;;;;6.03;81.20;95788.72;29395;303;63009;-56
2021/05/05 00:44:23;;;;;;;0.60;0.60;;;;;;;6.00;81.24;95790.09;29373;324;63004;-56
2021/05/05 00:45:00;;;;;;;0.50;0.50;;;;;;;5.96;81.41;95789.09;29395;199;63009;-55
2021/05/05 00:45:32;;;;;;;0.50;0.50;;;;;;;5.93;81.76;95786.97;29394;231;64004;-55
2021/05/05 00:46:03;;;;;;;0.60;0.60;;;;;;;5.92;82.08;95787.25;29373;227;63009;-57
2021/05/05 00:46:34;;;;;;;0.60;0.60;;;;;;;5.88;82.59;95792.41;29373;276;63004;-55
2021/05/05 00:47:08;;;;;;;0.50;0.50;;;;;;;5.82;82.99;95782.00;29373;303;63008;-55
2021/05/05 00:47:43;;;;;;;0.60;0.60;;;;;;;5.79;82.95;95779.88;29371;204;64018;-56
2021/05/05 00:48:14;;;;;;;0.60;0.60;;;;;;;5.85;83.05;95776.03;29373;349;63009;-55
2021/05/05 00:48:46;;;;;;;0.60;0.60;;;;;;;5.85;82.66;95786.81;29373;208;63005;-56
2021/05/05 00:49:17;;;;;;;0.60;0.60;;;;;;;5.81;82.72;95783.88;29373;224;63009;-56
2021/05/05 00:49:48;;;;;;;0.60;0.60;;;;;;;5.84;82.60;95780.63;29373;203;63005;-55
2021/05/05 00:50:19;;;;;;;0.60;0.60;;;;;;;5.84;82.31;95774.44;29373;196;63009;-55
2021/05/05 00:50:51;;;;;;;0.60;0.60;;;;;;;5.82;82.19;95772.03;29373;230;63005;-54
2021/05/05 00:51:22;;;;;;;0.50;0.50;;;;;;;5.81;82.13;95772.31;29373;316;63018;-55
2021/05/05 00:51:53;;;;;;;0.60;0.60;;;;;;;5.78;82.41;95773.69;29373;200;63004;-55
2021/05/05 00:52:25;;;;;;;0.50;0.50;;;;;;;5.79;82.57;95771.81;29373;323;63009;-56
2021/05/05 00:52:56;;;;;;;0.60;0.60;;;;;;;5.82;82.75;95779.31;29371;219;64004;-55
2021/05/05 00:53:27;;;;;;;0.60;0.60;;;;;;;5.80;82.62;95771.53;29371;271;64009;-55
2021/05/05 00:53:59;;;;;;;0.60;0.60;;;;;;;5.74;82.90;95783.44;29373;249;63004;-55
2021/05/05 00:54:30;;;;;;;0.60;0.60;;;;;;;5.75;83.12;95774.28;29373;252;63008;-56
2021/05/05 00:55:01;;;;;;;0.50;0.50;;;;;;;5.75;82.67;95776.97;29373;277;63004;-55
2021/05/05 00:55:33;;;;;;;0.60;0.60;;;;;;;5.75;82.73;95771.59;29373;207;63009;-55
2021/05/05 00:56:05;;;;;;;0.60;0.60;;;;;;;5.74;83.20;95775.38;29394;206;64005;-55
2021/05/05 00:56:36;;;;;;;0.60;0.60;;;;;;;5.72;82.96;95772.16;29395;239;63009;-57
2021/05/05 00:57:08;;;;;;;0.60;0.60;;;;;;;5.75;82.95;95773.47;29395;213;63005;-55
2021/05/05 00:57:40;;;;;;;0.60;0.60;;;;;;;5.75;83.05;95776.16;29373;287;63009;-55
2021/05/05 00:58:12;;;;;;;0.60;0.60;;;;;;;5.73;83.03;95771.06;29373;206;63005;-56
2021/05/05 00:58:43;;;;;;;0.60;0.60;;;;;;;5.76;83.10;95767.81;29373;377;63009;-54
2021/05/05 00:59:14;;;;;;;0.60;0.60;;;;;;;5.76;83.27;95767.81;29373;328;63008;-54
2021/05/05 00:59:47;;;;;;;0.60;0.60;;;;;;;5.80;83.13;95768.03;29373;228;63009;-55
2021/05/05 01:00:20;;;;;;;0.60;0.60;;;;;;;5.88;82.13;95765.50;29395;300;63004;-55
2021/05/05 01:00:51;;;;;;;0.60;0.60;;;;;;;5.88;81.84;95762.81;29373;269;63009;-54
2021/05/05 01:01:23;;;;;;;0.60;0.60;;;;;;;5.89;81.80;95767.09;29371;196;64004;-55
2021/05/05 01:01:54;;;;;;;0.60;0.60;;;;;;;5.93;81.97;95765.44;29395;243;63008;-55
2021/05/05 01:02:25;;;;;;;0.60;0.60;;;;;;;6.01;81.43;95748.63;29373;334;63004;-56
2021/05/05 01:02:56;;;;;;;0.60;0.60;;;;;;;5.99;81.39;95750.81;29373;283;63009;-54
2021/05/05 01:03:28;;;;;;;0.60;0.60;;;;;;;5.97;81.20;95741.41;29373;363;63005;-55
2021/05/05 01:03:59;;;;;;;0.60;0.60;;;;;;;5.97;81.10;95742.22;29373;219;63009;-55
2021/05/05 01:04:30;;;;;;;0.60;0.60;;;;;;;5.93;81.13;95735.00;29373;330;63008;-55
2021/05/05 01:05:01;;;;;;;0.60;0.60;;;;;;;5.89;80.95;95734.03;29373;250;63009;-55
2021/05/05 01:05:33;;;;;;;0.60;0.60;;;;;;;5.84;81.00;95734.84;29373;256;63005;-56
2021/05/05 01:06:05;;;;;;;0.60;0.60;;;;;;;5.84;81.78;95740.25;29373;221;63009;-56
2021/05/05 01:06:37;;;;;;;0.60;0.60;;;;;;;5.81;82.09;95743.50;29371;315;64004;-55
2021/05/05 01:07:09;;;;;;;0.60;0.60;;;;;;;5.77;82.73;95736.31;29373;353;63009;-56
2021/05/05 01:07:44;;;;;;;0.60;0.60;;;;;;;5.79;82.44;95740.31;29373;210;63004;-56
2021/05/05 01:08:17;;;;;;;0.60;0.60;;;;;;;5.79;81.85;95751.06;29373;356;63013;-57
2021/05/05 01:08:48;;;;;;;0.60;0.60;;;;;;;5.80;81.23;95749.97;29373;392;63004;-57
2021/05/05 01:09:19;;;;;;;0.60;0.60;;;;;;;5.81;81.48;95745.41;29373;356;63008;-55
2021/05/05 01:09:51;;;;;;;0.60;0.60;;;;;;;5.78;81.49;95746.78;29373;335;63005;-55
2021/05/05 01:10:22;;;;;;;0.60;0.60;;;;;;;5.75;81.90;95739.28;29373;286;63009;-55
2021/05/05 01:10:54;;;;;;;0.60;0.60;;;;;;;5.73;81.98;95744.94;29373;252;63019;-55
2021/05/05 01:11:26;;;;;;;0.60;0.60;;;;;;;5.71;82.39;95739.06;29373;197;63009;-55
2021/05/05 01:11:57;;;;;;;0.60;0.60;;;;;;;5.69;82.60;95733.16;29371;348;64005;-55
2021/05/05 01:12:28;;;;;;;0.60;0.60;;;;;;;5.67;82.90;95732.66;29373;316;63009;-55
2021/05/05 01:13:00;;;;;;;0.60;0.60;;;;;;;5.66;83.07;95732.94;29373;199;63005;-55
2021/05/05 01:13:32;;;;;;;0.60;0.60;;;;;;;5.63;83.78;95717.37;29373;200;63009;-55
2021/05/05 01:14:03;;;;;;;0.60;0.60;;;;;;;5.59;84.19;95719.03;29373;321;63004;-55
2021/05/05 01:14:35;;;;;;;0.60;0.60;;;;;;;5.56;84.41;95719.59;29373;274;63009;-55
2021/05/05 01:15:07;;;;;;;0.60;0.60;;;;;;;5.54;84.36;95721.81;29371;202;64004;-56
2021/05/05 01:15:39;;;;;;;0.60;0.60;;;;;;;5.53;84.46;95714.84;29373;269;63009;-56
2021/05/05 01:16:15;;;;;;;0.60;0.60;;;;;;;5.52;84.18;95715.91;29373;298;63004;-56
2021/05/05 01:16:47;;;;;;;0.60;0.60;;;;;;;5.53;84.38;95714.84;29373;354;63004;-56
2021/05/05 01:17:18;;;;;;;0.60;0.60;;;;;;;5.56;84.44;95719.59;29373;200;63005;-56
2021/05/05 01:17:50;;;;;;;0.60;0.60;;;;;;;5.57;84.31;95723.91;29371;374;64009;-56
2021/05/05 01:18:21;;;;;;;0.60;0.60;;;;;;;5.61;84.04;95714.16;29373;197;63005;-55
2021/05/05 01:18:52;;;;;;;0.60;0.60;;;;;;;5.60;84.00;95726.00;29373;465;63009;-55
2021/05/05 01:19:23;;;;;;;0.60;0.60;;;;;;;5.57;83.72;95724.69;29373;273;63005;-56
2021/05/05 01:19:54;;;;;;;0.60;0.60;;;;;;;5.57;83.85;95718.53;29373;202;63009;-55
2021/05/05 01:20:29;;;;;;;0.60;0.60;;;;;;;5.53;84.33;95720.22;29373;316;63005;-56
2021/05/05 01:21:00;;;;;;;0.55;0.55;;;;;;;5.52;84.62;95718.63;29373;364;63009;-55
2021/05/05 01:21:31;;;;;;;0.60;0.60;;;;;;;5.50;84.57;95718.09;29373;378;63004;-55
2021/05/05 01:22:04;;;;;;;0.60;0.60;;;;;;;5.49;84.63;95721.88;29373;197;63009;-57
2021/05/05 01:22:35;;;;;;;0.60;0.60;;;;;;;5.46;84.71;95722.44;29371;358;64004;-56
2021/05/05 01:23:07;;;;;;;0.50;0.50;;;;;;;5.46;84.81;95725.94;29372;282;63009;-55
2021/05/05 01:23:38;;;;;;;0.60;0.60;;;;;;;5.45;84.57;95726.22;29373;291;63004;-56
2021/05/05 01:24:10;;;;;;;0.60;0.60;;;;;;;5.45;84.88;95728.91;29373;276;63008;-56
2021/05/05 01:24:42;;;;;;;0.60;0.60;;;;;;;5.45;85.07;95728.91;29371;348;64005;-56
2021/05/05 01:25:16;;;;;;;0.60;0.60;;;;;;;5.51;84.83;95733.16;29373;202;63009;-55
2021/05/05 01:25:48;;;;;;;0.60;0.60;;;;;;;5.52;84.48;95730.19;29373;282;63005;-55
2021/05/05 01:26:19;;;;;;;0.60;0.60;;;;;;;5.53;84.28;95725.59;29373;245;63009;-56
2021/05/05 01:26:50;;;;;;;0.60;0.60;;;;;;;5.55;83.77;95728.78;29373;255;63005;-55
2021/05/05 01:27:23;;;;;;;0.60;0.60;;;;;;;5.55;84.10;95729.56;29371;328;64009;-55
2021/05/05 01:27:55;;;;;;;0.50;0.50;;;;;;;5.56;84.34;95738.44;29373;197;63005;-56
2021/05/05 01:28:27;;;;;;;0.60;0.60;;;;;;;5.56;84.42;95735.75;29373;197;63009;-55
2021/05/05 01:29:01;;;;;;;0.50;0.50;;;;;;;5.57;83.99;95737.34;29373;230;63004;-55
2021/05/05 01:29:34;;;;;;;0.60;0.60;;;;;;;5.62;84.08;95740.00;29373;331;63009;-56
2021/05/05 01:30:08;;;;;;;0.60;0.60;;;;;;;5.67;83.44;95737.22;29373;273;63004;-56
2021/05/05 01:30:39;;;;;;;0.60;0.60;;;;;;;5.67;83.54;95738.03;29373;311;63009;-56
2021/05/05 01:31:15;;;;;;;0.60;0.60;;;;;;;5.73;83.39;95738.78;29373;266;63004;-58
2021/05/05 01:31:47;;;;;;;0.60;0.60;;;;;;;5.83;81.40;95735.16;29371;299;64008;-56
2021/05/05 01:32:18;;;;;;;0.60;0.60;;;;;;;5.85;81.59;95732.97;29371;366;64005;-55
2021/05/05 01:32:50;;;;;;;0.60;0.60;;;;;;;5.79;81.66;95729.53;29373;230;63009;-56
2021/05/05 01:33:21;;;;;;;0.60;0.60;;;;;;;5.77;81.39;95737.09;29373;253;63005;-55
2021/05/05 01:33:53;;;;;;;0.60;0.60;;;;;;;5.80;81.26;95731.16;29373;323;63009;-59
2021/05/05 01:34:24;;;;;;;0.60;0.60;;;;;;;5.87;80.36;95728.91;29373;222;63005;-56
2021/05/05 01:34:56;;;;;;;0.50;0.50;;;;;;;5.90;80.00;95720.25;29372;317;64009;-55
2021/05/05 01:35:27;;;;;;;0.60;0.60;;;;;;;5.88;79.84;95730.50;29372;312;63005;-55
2021/05/05 01:35:59;;;;;;;0.60;0.60;;;;;;;5.84;80.07;95732.16;29373;224;63009;-55
2021/05/05 01:36:32;;;;;;;0.60;0.60;;;;;;;5.81;80.68;95727.34;29371;222;64004;-55
2021/05/05 01:37:04;;;;;;;0.60;0.60;;;;;;;5.79;81.13;95731.44;29373;353;63009;-55
2021/05/05 01:37:36;;;;;;;0.60;0.60;;;;;;;5.77;81.43;95730.91;29373;266;63004;-56
2021/05/05 01:38:11;;;;;;;0.60;0.60;;;;;;;5.75;81.50;95727.72;29373;314;63009;-55
2021/05/05 01:38:42;;;;;;;0.60;0.60;;;;;;;5.78;81.73;95735.22;29373;354;63004;-58
2021/05/05 01:39:17;;;;;;;0.60;0.60;;;;;;;5.82;81.05;95730.84;29373;249;63008;-54
2021/05/05 01:39:48;;;;;;;0.60;0.60;;;;;;;5.83;80.72;95730.56;29373;345;63005;-55
2021/05/05 01:40:26;;;;;;;0.60;0.60;;;;;;;5.82;80.63;95723.56;29371;209;64009;-54
2021/05/05 01:40:57;;;;;;;0.60;0.60;;;;;;;5.81;80.85;95721.97;29373;221;63005;-55
2021/05/05 01:41:29;;;;;;;0.60;0.60;;;;;;;5.78;81.58;95727.94;29373;261;63009;-56
2021/05/05 01:42:01;;;;;;;0.60;0.60;;;;;;;5.75;82.05;95727.72;29373;197;63005;-55
2021/05/05 01:42:32;;;;;;;0.60;0.60;;;;;;;5.70;82.43;95736.66;29373;324;63009;-56
2021/05/05 01:43:05;;;;;;;0.60;0.60;;;;;;;5.69;82.21;95724.28;29373;238;63005;-56
2021/05/05 01:43:37;;;;;;;0.60;0.60;;;;;;;5.69;82.41;95724.28;29371;214;64009;-56
2021/05/05 01:44:09;;;;;;;0.60;0.60;;;;;;;5.69;82.64;95735.06;29373;197;63004;-56
2021/05/05 01:44:41;;;;;;;0.50;0.50;;;;;;;5.67;82.73;95738.03;29373;339;63009;-56
2021/05/05 01:45:14;;;;;;;0.60;0.60;;;;;;;5.71;82.70;95738.25;29373;366;63004;-56
2021/05/05 01:45:45;;;;;;;0.50;0.50;;;;;;;5.74;82.55;95735.00;29373;223;63009;-56
2021/05/05 01:46:20;;;;;;;0.60;0.60;;;;;;;5.74;82.45;95732.28;29395;229;63004;-56
2021/05/05 01:46:51;;;;;;;0.60;0.60;;;;;;;5.76;82.33;95732.00;29373;217;63008;-56
2021/05/05 01:47:22;;;;;;;0.60;0.60;;;;;;;5.77;82.07;95731.72;29371;358;64005;-55
2021/05/05 01:47:59;;;;;;;0.60;0.60;;;;;;;5.82;81.93;95737.03;29373;275;63009;-55
2021/05/05 01:48:31;;;;;;;0.60;0.60;;;;;;;5.88;81.43;95733.19;29373;212;63005;-56
2021/05/05 01:49:03;;;;;;;0.60;0.60;;;;;;;5.86;81.58;95735.38;29373;196;63005;-56
2021/05/05 01:49:41;;;;;;;0.60;0.60;;;;;;;5.84;81.74;95734.84;29372;339;63005;-56
2021/05/05 01:50:13;;;;;;;0.60;0.60;;;;;;;5.79;81.50;95734.94;29373;211;63009;-56
2021/05/05 01:50:44;;;;;;;0.60;0.60;;;;;;;5.77;81.87;95733.63;29373;228;63005;-56
2021/05/05 01:51:16;;;;;;;0.60;0.60;;;;;;;5.78;81.86;95733.31;29371;315;64009;-55
2021/05/05 01:51:49;;;;;;;0.60;0.60;;;;;;;5.72;80.63;95739.87;29373;336;63004;-56
2021/05/05 01:52:20;;;;;;;0.60;0.60;;;;;;;5.67;80.93;95726.47;29373;322;63009;-55
2021/05/05 01:52:52;;;;;;;0.60;0.60;;;;;;;5.67;80.94;95731.84;29373;318;63004;-57
2021/05/05 01:53:23;;;;;;;0.60;0.60;;;;;;;5.67;81.48;95726.47;29373;272;63009;-55
2021/05/05 01:53:55;;;;;;;0.60;0.60;;;;;;;5.66;81.65;95738.31;29373;227;63004;-56
2021/05/05 01:54:27;;;;;;;0.60;0.60;;;;;;;5.63;82.24;95725.44;29373;196;63020;-55
2021/05/05 01:54:58;;;;;;;0.60;0.60;;;;;;;5.69;82.21;95732.37;29395;224;63005;-56
2021/05/05 01:55:30;;;;;;;0.50;0.50;;;;;;;5.66;81.80;95730.25;29372;214;63009;-55
2021/05/05 01:56:01;;;;;;;0.50;0.50;;;;;;;5.64;81.88;95732.44;29371;216;64005;-55
2021/05/05 01:56:32;;;;;;;0.60;0.60;;;;;;;5.57;82.39;95727.41;29373;208;63009;-55
2021/05/05 01:57:22;;;;;;;0.60;0.60;;;;;;;5.54;82.75;95737.97;29373;297;63005;-56
2021/05/05 01:57:54;;;;;;;0.60;0.60;;;;;;;5.52;82.65;95729.38;29373;222;63009;-55
2021/05/05 01:58:25;;;;;;;0.60;0.60;;;;;;;5.51;82.69;95727.78;29373;244;63004;-55
2021/05/05 01:58:56;;;;;;;0.60;0.60;;;;;;;5.49;83.12;95725.37;29395;315;63009;-56
2021/05/05 01:59:27;;;;;;;0.50;0.50;;;;;;;5.49;83.36;95729.94;29395;275;63004;-56
2021/05/05 02:00:00;;;;;;;0.60;0.60;;;;;;;5.48;83.51;95728.34;29395;246;63009;-56
2021/05/05 02:00:32;;;;;;;0.60;0.60;;;;;;;5.48;83.69;95731.03;29395;253;63004;-56
2021/05/05 02:01:04;;;;;;;0.60;0.60;;;;;;;5.47;83.90;95724.06;29394;202;64008;-56
2021/05/05 02:01:35;;;;;;;0.60;0.60;;;;;;;5.48;83.89;95725.66;29395;210;63004;-56
2021/05/05 02:02:06;;;;;;;0.60;0.60;;;;;;;5.55;84.26;95729.56;29395;267;63008;-55
2021/05/05 02:02:38;;;;;;;0.60;0.60;;;;;;;5.59;83.82;95710.97;29395;211;63005;-55
2021/05/05 02:03:10;;;;;;;0.57;0.57;;;;;;;5.61;83.77;95727.63;29395;270;63009;-55
2021/05/05 02:03:41;;;;;;;0.60;0.60;;;;;;;5.58;83.49;95733.56;29395;212;63005;-56
2021/05/05 02:04:13;;;;;;;0.50;0.50;;;;;;;5.55;83.71;95732.25;29395;229;63009;-56
2021/05/05 02:04:44;;;;;;;0.60;0.60;;;;;;;5.53;83.49;95730.97;29395;214;63005;-56
2021/05/05 02:05:15;;;;;;;0.60;0.60;;;;;;;5.53;84.06;95733.66;29394;202;64009;-56
2021/05/05 02:05:47;;;;;;;0.60;0.60;;;;;;;5.53;83.81;95733.66;29395;236;63004;-56
2021/05/05 02:06:18;;;;;;;0.60;0.60;;;;;;;5.53;83.97;95737.16;29395;298;63009;-56
2021/05/05 02:06:49;;;;;;;0.60;0.60;;;;;;;5.52;83.97;95734.75;29373;199;63004;-56
2021/05/05 02:07:20;;;;;;;0.60;0.60;;;;;;;5.52;84.21;95730.19;29373;250;63009;-55
2021/05/05 02:07:51;;;;;;;0.60;0.60;;;;;;;5.51;84.31;95733.97;29371;278;64004;-56
2021/05/05 02:08:23;;;;;;;0.60;0.60;;;;;;;5.52;84.39;95737.44;29373;366;63008;-55
2021/05/05 02:08:59;;;;;;;0.60;0.60;;;;;;;5.51;84.03;95733.16;29371;295;64004;-58
2021/05/05 02:09:30;;;;;;;0.57;0.57;;;;;;;5.51;84.23;95733.16;29373;359;63009;-55
2021/05/05 02:10:02;;;;;;;0.60;0.60;;;;;;;5.49;84.04;95735.34;29373;297;63005;-56
2021/05/05 02:10:34;;;;;;;0.60;0.60;;;;;;;5.48;84.39;95731.03;29373;335;63009;-55
2021/05/05 02:11:05;;;;;;;0.60;0.60;;;;;;;5.48;84.37;95739.09;29373;326;63005;-55
2021/05/05 02:11:36;;;;;;;0.60;0.60;;;;;;;5.48;84.51;95733.72;29373;242;63009;-56
2021/05/05 02:12:09;;;;;;;0.60;0.60;;;;;;;5.48;84.10;95728.34;29373;208;63005;-56
2021/05/05 02:12:41;;;;;;;0.60;0.60;;;;;;;5.46;84.02;95728.62;29371;347;64009;-55
2021/05/05 02:13:14;;;;;;;0.60;0.60;;;;;;;5.45;84.05;95721.66;29373;243;63004;-55
2021/05/05 02:13:45;;;;;;;0.60;0.60;;;;;;;5.43;84.48;95720.34;29373;216;63009;-55
2021/05/05 02:14:16;;;;;;;0.60;0.60;;;;;;;5.43;84.15;95723.03;29373;287;63004;-55
2021/05/05 02:14:48;;;;;;;0.60;0.60;;;;;;;5.42;84.41;95722.22;29373;224;63009;-55
2021/05/05 02:15:20;;;;;;;0.60;0.60;;;;;;;5.42;84.24;95716.84;29373;263;63004;-56
2021/05/05 02:15:51;;;;;;;0.60;0.60;;;;;;;5.42;84.23;95718.72;29373;245;63008;-55
2021/05/05 02:16:22;;;;;;;0.60;0.60;;;;;;;5.43;84.17;95718.44;29373;310;63004;-55
2021/05/05 02:16:57;;;;;;;0.52;0.52;;;;;;;5.44;84.34;95717.34;29373;291;63009;-56
2021/05/05 02:17:28;;;;;;;0.60;0.60;;;;;;;5.45;84.13;95718.16;29373;199;63005;-56
2021/05/05 02:18:00;;;;;;;0.60;0.60;;;;;;;5.46;84.33;95719.75;29371;352;64009;-55
2021/05/05 02:18:31;;;;;;;0.60;0.60;;;;;;;5.46;84.08;95717.87;29373;212;63005;-55
2021/05/05 02:19:02;;;;;;;0.60;0.60;;;;;;;5.46;84.11;95717.06;29373;266;63009;-56
2021/05/05 02:19:34;;;;;;;0.60;0.60;;;;;;;5.46;84.04;95719.75;29373;217;63005;-55
2021/05/05 02:20:11;;;;;;;0.60;0.60;;;;;;;5.49;84.37;95714.59;29373;210;63009;-57
2021/05/05 02:20:44;;;;;;;0.60;0.60;;;;;;;5.54;84.30;95717.25;29373;227;63005;-56
2021/05/05 02:21:15;;;;;;;0.60;0.60;;;;;;;5.56;84.37;95716.91;29373;318;63009;-56
2021/05/05 02:21:47;;;;;;;0.60;0.60;;;;;;;5.55;83.84;95713.44;29373;222;63004;-55
2021/05/05 02:22:18;;;;;;;0.60;0.60;;;;;;;5.53;84.12;95715.63;29373;234;63009;-56
2021/05/05 02:22:49;;;;;;;0.60;0.60;;;;;;;5.52;83.95;95718.63;29373;227;63004;-55
2021/05/05 02:23:21;;;;;;;0.60;0.60;;;;;;;5.55;83.90;95718.00;29394;298;64008;-57
2021/05/05 02:23:52;;;;;;;0.60;0.60;;;;;;;5.59;83.49;95716.34;29373;212;63004;-55
2021/05/05 02:24:24;;;;;;;0.57;0.57;;;;;;;5.59;83.65;95708.28;29373;205;63009;-55
2021/05/05 02:24:55;;;;;;;0.60;0.60;;;;;;;5.57;84.21;95705.88;29373;256;63005;-56
2021/05/05 02:25:27;;;;;;;0.60;0.60;;;;;;;5.55;83.98;95718.00;29371;199;64009;-55
2021/05/05 02:25:59;;;;;;;0.60;0.60;;;;;;;5.53;84.43;95725.59;29373;352;63005;-56
2021/05/05 02:26:30;;;;;;;0.60;0.60;;;;;;;5.49;84.63;95721.88;29373;318;63009;-55
2021/05/05 02:27:01;;;;;;;0.60;0.60;;;;;;;5.45;84.65;95716.28;29373;240;63005;-56
2021/05/05 02:27:34;;;;;;;0.60;0.60;;;;;;;5.42;85.08;95719.53;29373;354;63009;-56
2021/05/05 02:28:05;;;;;;;0.60;0.60;;;;;;;5.42;84.77;95724.13;29373;359;63005;-55
2021/05/05 02:28:36;;;;;;;0.50;0.50;;;;;;;5.45;85.01;95723.53;29373;202;63009;-55
2021/05/05 02:29:08;;;;;;;0.60;0.60;;;;;;;5.46;84.83;95715.19;29373;215;63004;-55
2021/05/05 02:29:39;;;;;;;0.60;0.60;;;;;;;5.46;84.93;95720.56;29373;317;63009;-55
2021/05/05 02:30:13;;;;;;;0.60;0.60;;;;;;;5.45;84.95;95718.97;29373;279;63004;-56
2021/05/05 02:30:46;;;;;;;0.60;0.60;;;;;;;5.43;84.89;95714.97;29371;291;64024;-55
2021/05/05 02:31:18;;;;;;;0.60;0.60;;;;;;;5.43;84.74;95714.97;29373;202;63004;-55
2021/05/05 02:31:51;;;;;;;0.60;0.60;;;;;;;5.46;85.18;95711.69;29373;365;63009;-55
2021/05/05 02:32:24;;;;;;;0.60;0.60;;;;;;;5.47;84.82;95711.41;29373;234;63005;-55
2021/05/05 02:33:00;;;;;;;0.60;0.60;;;;;;;5.48;85.06;95715.69;29373;222;63009;-55
2021/05/05 02:33:32;;;;;;;0.60;0.60;;;;;;;5.47;85.13;95716.00;29373;202;63005;-58
2021/05/05 02:34:04;;;;;;;0.60;0.60;;;;;;;5.45;84.93;95713.59;29373;215;63009;-55
2021/05/05 02:34:40;;;;;;;0.60;0.60;;;;;;;5.42;85.08;95724.13;29373;363;63005;-55